Tangipahoa, Louisiana
Current Conditions -  °F | °C
As of 8:14 PM on Sunday 23 Nov 2014 (Local Time) from KMCB Reporting Station
Scattered Clouds Scattered Clouds  
Wind Chill: 64°   Ceiling: Unl
Heat Index: 64°   Visibility: 10mi
Dew Point: 60°   Wind: 9mph
Humidity: 87%   Direction: 190°S
Pressure: 29.67"   Gusts: NA
Location:  30.88°N, 90.51°W
Report Text: KMCB 240214Z AUTO 19008KT 10SM SCT019 18/16 A2967 RMK AO2 T01780156
Loading
Personal Weather Stations






























Interactive Weather Map New forecast layout! Learn more

10-Day Weather Forecast

Advertisements
Track Severe Weather on mobile